Weather at Perth Jandakot Airport

Public forecast

Using degrees Celsius for public forecast. Weather courtesy of forecast.io.

Current aviation weather report (METAR) for Perth Jandakot Airport

2023/04/01 03:30 (retrieved 14 minutes ago)

YPJT 010330Z AUTO 09007KT 060V120 9999 // BKN026 23/15 Q1013

Closest aviation forecast (TAF) to Perth Jandakot Airport

Forecast is more than 6 hours old.

Closest forecast is Busselton Margaret River Regional Airport, 98.5 nm (182.5 km) SSW.

2023/03/31 18:00 (retrieved 10 hours ago)

TAF YBLN 311726Z 3118/0118 11014KT 9999 BKN050 FM010000 09010KT 9999 BKN050 FM010400 04007KT 9999 SCT050 FM011500 09010KT CAVOK